Jump to content


CUBANA DE AVIACION FLIGHT CU9591 FLOWN ON 01-19-2018 BY CAPTAIN ADEL CABALLIN

Pilot StatsCaptain Adel Caballin (LDP11) • 724.7 total hours • 386 total flights [View Logbook]
FLIGHT DETAILS
StatusReceived and approved on 2018-01-19 at 22:01:18
Origin Airport4th Of February (FNLU) • Luanda, Angola (23 feet MSL)
Filed Flight PlanFNLU KODOR UA400F ARAKI UA400 AD UR979 YF UR976 UGAMA GVAC
Destination AirportAmilcar Cabral (GVAC) • Sal, Cape Verde (177 feet MSL)
Alternate AirportLeopold Sedar Senghor (GOOY) • Dakar, Senegal (85 feet MSL)
AirlineCubana de Aviacion
AircraftIlyushin IL-62 (IL6 / IL-62)
FS Aircraft UsedProject Tupolev IL-62M_V1_03
Cruising AltitudeFL300
Distance Flown2,641 nautical miles
Passengers Onboard65 passengers (37.36% full)
DEPARTURE DETAILS
Time Out09:26:52
Taxi Data350,803 lbs total with 191,526 lbs of fuel onboard
Takeoff Data09:37:36 (11 minutes after leaving gate/ramp) • 348,034 lbs total • 8° pitch at 180 knots
Departure METARFNLU 191800Z 26008KT 9999 FEW020 BKN090 27/23 Q1008 NOSIG
ARRIVAL DETAILS
Landing Data14:29:11 • 210,232 lbs total • 5° pitch doing 136 knots at a rate of -294.51 feet/minute with 49,864 lbs of fuel onboard
Time In14:37:11 (8 minutes after landing)
Ramp Weight209,142 lbs total
Total Fuel Used141,662 lbs
Total Block Time06:14:25 (6.2 hours) while 19 minutes were spent on the ground
Arrival METARGVAC 200300Z 05014KT 9999 SCT014 BKN200 20/14 Q1018 NOSIG
MISCELLANEOUS DETAILS
LiveDISPATCH Version4.8.3.1
FS Version
FSUIPC Version4.97
OS VersionWindows 7 32-bit
Screen Resolution1920 x 1080
Pilot's CommentsRoute: VNA UG853F TERBA UG853 GARAT 600N01000W ROB B600 SESEL B600F BIS06 BIS A602G MOGSA UA602 ORABI
FLIGHT MAP